Harmony Sp — 3FWE6 — position and weather

sailwx.info

Track history (hours):
 
Tides and Currents Weather Stations Pressure Air Temp Water Temp Dewpoint Dewpoint Depression Visibility Wind Speed Wind Dir Waves Ship Positions

Harmony Sp

Last reported at 2016-Jun-28 16:08 UTC. Time now 2016-Jun-30 05:08 UTC.
Position N 44°27' E 037°31'.

MMSI: 353359712.

Date/timePositionNaut miles runAvg speedWind from/ knotsBaromVisibWave heightAir tempDewpointWater temp
2016-Jun-28 16:08N 44°27' E 037°31'6 9.3
2016-Jun-28 15:33N 44°30' E 037°38'9 9.3
2016-Jun-28 14:34N 44°36' E 037°47'7 7.1
2016-Jun-28 13:33N 44°43' E 037°48'1 0.5
2016-Jun-28 12:32N 44°44' E 037°48'0 0.0
2016-Jun-28 11:32N 44°44' E 037°48'0 0.0
2016-Jun-28 10:32N 44°44' E 037°48'0 0.0
2016-Jun-28 09:32N 44°44' E 037°48'0 0.0
2016-Jun-28 08:32N 44°44' E 037°48'0 0.0
2016-Jun-28 07:32N 44°44' E 037°48'0 0.0
2016-Jun-28 06:32N 44°44' E 037°48'0 0.0
2016-Jun-28 04:32N 44°44' E 037°48'0 0.0
2016-Jun-28 03:32N 44°44' E 037°48'0 0.0
2016-Jun-28 02:32N 44°44' E 037°48'0 0.0
2016-Jun-28 01:32N 44°44' E 037°48'0 0.0
2016-Jun-28 00:32N 44°44' E 037°48'0 0.0
2016-Jun-27 23:32N 44°44' E 037°48'0 0.0
2016-Jun-27 22:32N 44°44' E 037°48'0 0.0
2016-Jun-27 21:32N 44°44' E 037°48'0 0.0
2016-Jun-27 20:32N 44°44' E 037°48'0 0.0
2016-Jun-27 19:32N 44°44' E 037°48'0 0.0
2016-Jun-27 18:32N 44°44' E 037°48'0 0.0
2016-Jun-27 17:32N 44°44' E 037°48'0 0.0
2016-Jun-27 16:32N 44°44' E 037°48'0 0.0
2016-Jun-27 15:32N 44°44' E 037°48'0 0.0
2016-Jun-27 14:32N 44°44' E 037°48'0 0.0
2016-Jun-27 13:32N 44°44' E 037°48'0 0.0
2016-Jun-27 12:32N 44°44' E 037°48'0 0.0
2016-Jun-27 11:32N 44°44' E 037°48'0 0.0
2016-Jun-27 10:32N 44°44' E 037°48'0 0.0
2016-Jun-27 09:32N 44°44' E 037°48'0 0.0
2016-Jun-27 08:32N 44°44' E 037°48'0 0.0
2016-Jun-27 07:32N 44°44' E 037°48'0 0.0
2016-Jun-27 06:32N 44°44' E 037°48'0 0.0
2016-Jun-27 05:32N 44°44' E 037°48'0 0.0
2016-Jun-27 04:32N 44°44' E 037°48'0 0.0
2016-Jun-27 03:32N 44°44' E 037°48'0 0.0
2016-Jun-27 02:32N 44°44' E 037°48'0 0.0
2016-Jun-27 01:32N 44°44' E 037°48'0 0.0
2016-Jun-27 00:32N 44°44' E 037°48'0 0.0
2016-Jun-26 23:32N 44°44' E 037°48'0 0.0
2016-Jun-26 22:32N 44°44' E 037°48'0 0.0
2016-Jun-26 21:32N 44°44' E 037°48'0 0.0
2016-Jun-26 20:32N 44°44' E 037°48'0 0.0
2016-Jun-26 19:32N 44°44' E 037°48'0 0.0
2016-Jun-26 18:32N 44°44' E 037°48'0 0.0
2016-Jun-26 17:32N 44°44' E 037°48'0 0.0
2016-Jun-26 16:32N 44°44' E 037°48'0 0.0
2016-Jun-26 15:32N 44°44' E 037°48'0 0.0
2016-Jun-26 14:32N 44°44' E 037°48'1 1.3
2016-Jun-26 13:34N 44°43' E 037°48'5 4.9
2016-Jun-26 12:33N 44°39' E 037°53'0 0.2
2016-Jun-26 11:28N 44°39' E 037°53'0 0.0
2016-Jun-26 10:31N 44°39' E 037°53'0 0.0
2016-Jun-26 09:31N 44°39' E 037°53'0 0.0
2016-Jun-26 08:31N 44°39' E 037°53'0 0.1
2016-Jun-26 07:31N 44°39' E 037°53'0 0.0
2016-Jun-26 06:31N 44°39' E 037°53'0 0.1
2016-Jun-26 05:31N 44°39' E 037°53'0 0.0
2016-Jun-26 04:31N 44°39' E 037°53'0 0.0
2016-Jun-26 03:31N 44°39' E 037°53'0 0.0
2016-Jun-26 02:31N 44°39' E 037°53'0 0.0
2016-Jun-26 01:31N 44°39' E 037°53'0 0.0
2016-Jun-26 00:31N 44°39' E 037°53'0 0.0
2016-Jun-25 23:31N 44°39' E 037°53'0 0.0
2016-Jun-25 22:31N 44°39' E 037°53'0 0.0
2016-Jun-25 21:31N 44°39' E 037°53'0 0.0
2016-Jun-25 20:31N 44°39' E 037°53'0 0.0
2016-Jun-25 19:31N 44°39' E 037°53'0 0.0
2016-Jun-25 18:28N 44°39' E 037°53'0 0.0
2016-Jun-25 17:31N 44°39' E 037°53'0 0.0
2016-Jun-25 16:31N 44°39' E 037°53'0 0.0
2016-Jun-25 15:31N 44°39' E 037°53'0 0.0
2016-Jun-25 14:31N 44°39' E 037°53'0 0.0
2016-Jun-25 13:31N 44°39' E 037°53'0 0.0
2016-Jun-25 12:31N 44°39' E 037°53'0 0.0
2016-Jun-25 11:31N 44°39' E 037°53'0 0.0
2016-Jun-25 10:31N 44°39' E 037°53'2 1.6
2016-Jun-25 09:34N 44°38' E 037°52'1110.6
2016-Jun-25 08:34N 44°27' E 037°50'9910.6
2016-Jun-24 23:16N 42°54' E 037°05'  
2016-Jun-20 17:30N 44°13' E 037°34'18 9.3
2016-Jun-20 15:30N 44°31' E 037°42'9 9.3
2016-Jun-20 14:34N 44°38' E 037°49'6 5.9
2016-Jun-20 13:33N 44°44' E 037°48'0 0.0
2016-Jun-20 12:32N 44°44' E 037°48'0 0.0
2016-Jun-20 11:32N 44°44' E 037°48'0 0.0
2016-Jun-20 10:32N 44°44' E 037°48'0 0.0
2016-Jun-20 09:32N 44°44' E 037°48'0 0.0
2016-Jun-20 08:32N 44°44' E 037°48'0 0.0
2016-Jun-20 07:32N 44°44' E 037°48'0 0.0
2016-Jun-20 06:32N 44°44' E 037°48'0 0.0
2016-Jun-20 05:32N 44°44' E 037°48'0 0.0
2016-Jun-20 04:32N 44°44' E 037°48'0 0.0
2016-Jun-20 01:32N 44°44' E 037°48'0 0.0
2016-Jun-20 00:32N 44°44' E 037°48'0 0.0
2016-Jun-19 23:32N 44°44' E 037°48'0 0.0
2016-Jun-19 22:32N 44°44' E 037°48'0 0.0
2016-Jun-19 21:32N 44°44' E 037°48'0 0.0
2016-Jun-19 20:32N 44°44' E 037°48'0 0.0
2016-Jun-19 19:32N 44°44' E 037°48'0 0.0
2016-Jun-19 18:32N 44°44' E 037°48'0 0.0
2016-Jun-19 17:32N 44°44' E 037°48'0 0.0
2016-Jun-19 16:29N 44°44' E 037°48'0 0.0
2016-Jun-19 15:32N 44°44' E 037°48'0 0.0
2016-Jun-19 14:32N 44°44' E 037°48'0 0.0
2016-Jun-19 13:32N 44°44' E 037°48'0 0.0
2016-Jun-19 12:32N 44°44' E 037°48'0 0.0
2016-Jun-19 11:32N 44°44' E 037°48'0 0.0
2016-Jun-19 10:32N 44°44' E 037°48'0 0.0
2016-Jun-19 09:32N 44°44' E 037°48'0 0.0
2016-Jun-19 08:32N 44°44' E 037°48'0 0.0
2016-Jun-19 07:32N 44°44' E 037°48'0 0.0
2016-Jun-19 06:32N 44°44' E 037°48'1 0.7
2016-Jun-19 05:33N 44°43' E 037°48'6 6.1
2016-Jun-19 04:33N 44°38' E 037°53'0 0.4
2016-Jun-19 03:32N 44°39' E 037°54'0 0.0
2016-Jun-19 02:32N 44°39' E 037°54'0 0.0
2016-Jun-19 01:32N 44°39' E 037°54'0 0.0
2016-Jun-19 00:32N 44°39' E 037°54'0 0.0
2016-Jun-18 23:32N 44°39' E 037°54'0 0.0
2016-Jun-18 22:32N 44°39' E 037°54'0 0.0
2016-Jun-18 21:32N 44°39' E 037°54'0 0.0
2016-Jun-18 20:32N 44°39' E 037°54'0 0.1
2016-Jun-18 18:32N 44°39' E 037°54'0 0.0
2016-Jun-18 17:23N 44°39' E 037°54'0 0.0
2016-Jun-18 16:32N 44°39' E 037°54'  
Track history (hours):
 
Tides and Currents Weather Stations Pressure Air Temp Water Temp Dewpoint Dewpoint Depression Visibility Wind Speed Wind Dir Waves Ship Positions

Harmony Sp

Last reported at 2016-Jun-28 16:08 UTC. Time now 2016-Jun-30 05:08 UTC.
Position N 44°27' E 037°31'.

MMSI: 353359712.

Date/timePositionNaut miles runAvg speedWind from/ knotsBaromVisibWave heightAir tempDewpointWater temp
2016-Jun-28 16:08N 44°27' E 037°31'6 9.3
2016-Jun-28 15:33N 44°30' E 037°38'9 9.3
2016-Jun-28 14:34N 44°36' E 037°47'7 7.1
2016-Jun-28 13:33N 44°43' E 037°48'1 0.5
2016-Jun-28 12:32N 44°44' E 037°48'0 0.0
2016-Jun-28 11:32N 44°44' E 037°48'0 0.0
2016-Jun-28 10:32N 44°44' E 037°48'0 0.0
2016-Jun-28 09:32N 44°44' E 037°48'0 0.0
2016-Jun-28 08:32N 44°44' E 037°48'0 0.0
2016-Jun-28 07:32N 44°44' E 037°48'0 0.0
2016-Jun-28 06:32N 44°44' E 037°48'0 0.0
2016-Jun-28 04:32N 44°44' E 037°48'0 0.0
2016-Jun-28 03:32N 44°44' E 037°48'0 0.0
2016-Jun-28 02:32N 44°44' E 037°48'0 0.0
2016-Jun-28 01:32N 44°44' E 037°48'0 0.0
2016-Jun-28 00:32N 44°44' E 037°48'0 0.0
2016-Jun-27 23:32N 44°44' E 037°48'0 0.0
2016-Jun-27 22:32N 44°44' E 037°48'0 0.0
2016-Jun-27 21:32N 44°44' E 037°48'0 0.0
2016-Jun-27 20:32N 44°44' E 037°48'0 0.0
2016-Jun-27 19:32N 44°44' E 037°48'0 0.0
2016-Jun-27 18:32N 44°44' E 037°48'0 0.0
2016-Jun-27 17:32N 44°44' E 037°48'0 0.0
2016-Jun-27 16:32N 44°44' E 037°48'0 0.0
2016-Jun-27 15:32N 44°44' E 037°48'0 0.0
2016-Jun-27 14:32N 44°44' E 037°48'0 0.0
2016-Jun-27 13:32N 44°44' E 037°48'0 0.0
2016-Jun-27 12:32N 44°44' E 037°48'0 0.0
2016-Jun-27 11:32N 44°44' E 037°48'0 0.0
2016-Jun-27 10:32N 44°44' E 037°48'0 0.0
2016-Jun-27 09:32N 44°44' E 037°48'0 0.0
2016-Jun-27 08:32N 44°44' E 037°48'0 0.0
2016-Jun-27 07:32N 44°44' E 037°48'0 0.0
2016-Jun-27 06:32N 44°44' E 037°48'0 0.0
2016-Jun-27 05:32N 44°44' E 037°48'0 0.0
2016-Jun-27 04:32N 44°44' E 037°48'0 0.0
2016-Jun-27 03:32N 44°44' E 037°48'0 0.0
2016-Jun-27 02:32N 44°44' E 037°48'0 0.0
2016-Jun-27 01:32N 44°44' E 037°48'0 0.0
2016-Jun-27 00:32N 44°44' E 037°48'0 0.0
2016-Jun-26 23:32N 44°44' E 037°48'0 0.0
2016-Jun-26 22:32N 44°44' E 037°48'0 0.0
2016-Jun-26 21:32N 44°44' E 037°48'0 0.0
2016-Jun-26 20:32N 44°44' E 037°48'0 0.0
2016-Jun-26 19:32N 44°44' E 037°48'0 0.0
2016-Jun-26 18:32N 44°44' E 037°48'0 0.0
2016-Jun-26 17:32N 44°44' E 037°48'0 0.0
2016-Jun-26 16:32N 44°44' E 037°48'0 0.0
2016-Jun-26 15:32N 44°44' E 037°48'0 0.0
2016-Jun-26 14:32N 44°44' E 037°48'1 1.3
2016-Jun-26 13:34N 44°43' E 037°48'5 4.9
2016-Jun-26 12:33N 44°39' E 037°53'0 0.2
2016-Jun-26 11:28N 44°39' E 037°53'0 0.0
2016-Jun-26 10:31N 44°39' E 037°53'0 0.0
2016-Jun-26 09:31N 44°39' E 037°53'0 0.0
2016-Jun-26 08:31N 44°39' E 037°53'0 0.1
2016-Jun-26 07:31N 44°39' E 037°53'0 0.0
2016-Jun-26 06:31N 44°39' E 037°53'0 0.1
2016-Jun-26 05:31N 44°39' E 037°53'0 0.0
2016-Jun-26 04:31N 44°39' E 037°53'0 0.0
2016-Jun-26 03:31N 44°39' E 037°53'0 0.0
2016-Jun-26 02:31N 44°39' E 037°53'0 0.0
2016-Jun-26 01:31N 44°39' E 037°53'0 0.0
2016-Jun-26 00:31N 44°39' E 037°53'0 0.0
2016-Jun-25 23:31N 44°39' E 037°53'0 0.0
2016-Jun-25 22:31N 44°39' E 037°53'0 0.0
2016-Jun-25 21:31N 44°39' E 037°53'0 0.0
2016-Jun-25 20:31N 44°39' E 037°53'0 0.0
2016-Jun-25 19:31N 44°39' E 037°53'0 0.0
2016-Jun-25 18:28N 44°39' E 037°53'0 0.0
2016-Jun-25 17:31N 44°39' E 037°53'0 0.0
2016-Jun-25 16:31N 44°39' E 037°53'0 0.0
2016-Jun-25 15:31N 44°39' E 037°53'0 0.0
2016-Jun-25 14:31N 44°39' E 037°53'0 0.0
2016-Jun-25 13:31N 44°39' E 037°53'0 0.0
2016-Jun-25 12:31N 44°39' E 037°53'0 0.0
2016-Jun-25 11:31N 44°39' E 037°53'0 0.0
2016-Jun-25 10:31N 44°39' E 037°53'2 1.6
2016-Jun-25 09:34N 44°38' E 037°52'1110.6
2016-Jun-25 08:34N 44°27' E 037°50'9910.6
2016-Jun-24 23:16N 42°54' E 037°05'  
2016-Jun-20 17:30N 44°13' E 037°34'18 9.3
2016-Jun-20 15:30N 44°31' E 037°42'9 9.3
2016-Jun-20 14:34N 44°38' E 037°49'6 5.9
2016-Jun-20 13:33N 44°44' E 037°48'0 0.0
2016-Jun-20 12:32N 44°44' E 037°48'0 0.0
2016-Jun-20 11:32N 44°44' E 037°48'0 0.0
2016-Jun-20 10:32N 44°44' E 037°48'0 0.0
2016-Jun-20 09:32N 44°44' E 037°48'0 0.0
2016-Jun-20 08:32N 44°44' E 037°48'0 0.0
2016-Jun-20 07:32N 44°44' E 037°48'0 0.0
2016-Jun-20 06:32N 44°44' E 037°48'0 0.0
2016-Jun-20 05:32N 44°44' E 037°48'0 0.0
2016-Jun-20 04:32N 44°44' E 037°48'0 0.0
2016-Jun-20 01:32N 44°44' E 037°48'0 0.0
2016-Jun-20 00:32N 44°44' E 037°48'0 0.0
2016-Jun-19 23:32N 44°44' E 037°48'0 0.0
2016-Jun-19 22:32N 44°44' E 037°48'0 0.0
2016-Jun-19 21:32N 44°44' E 037°48'0 0.0
2016-Jun-19 20:32N 44°44' E 037°48'0 0.0
2016-Jun-19 19:32N 44°44' E 037°48'0 0.0
2016-Jun-19 18:32N 44°44' E 037°48'0 0.0
2016-Jun-19 17:32N 44°44' E 037°48'0 0.0
2016-Jun-19 16:29N 44°44' E 037°48'0 0.0
2016-Jun-19 15:32N 44°44' E 037°48'0 0.0
2016-Jun-19 14:32N 44°44' E 037°48'0 0.0
2016-Jun-19 13:32N 44°44' E 037°48'0 0.0
2016-Jun-19 12:32N 44°44' E 037°48'0 0.0
2016-Jun-19 11:32N 44°44' E 037°48'0 0.0
2016-Jun-19 10:32N 44°44' E 037°48'0 0.0
2016-Jun-19 09:32N 44°44' E 037°48'0 0.0
2016-Jun-19 08:32N 44°44' E 037°48'0 0.0
2016-Jun-19 07:32N 44°44' E 037°48'0 0.0
2016-Jun-19 06:32N 44°44' E 037°48'1 0.7
2016-Jun-19 05:33N 44°43' E 037°48'6 6.1
2016-Jun-19 04:33N 44°38' E 037°53'0 0.4
2016-Jun-19 03:32N 44°39' E 037°54'0 0.0
2016-Jun-19 02:32N 44°39' E 037°54'0 0.0
2016-Jun-19 01:32N 44°39' E 037°54'0 0.0
2016-Jun-19 00:32N 44°39' E 037°54'0 0.0
2016-Jun-18 23:32N 44°39' E 037°54'0 0.0
2016-Jun-18 22:32N 44°39' E 037°54'0 0.0
2016-Jun-18 21:32N 44°39' E 037°54'0 0.0
2016-Jun-18 20:32N 44°39' E 037°54'0 0.1
2016-Jun-18 18:32N 44°39' E 037°54'0 0.0
2016-Jun-18 17:23N 44°39' E 037°54'0 0.0
2016-Jun-18 16:32N 44°39' E 037°54'  

Dump ship's entire track history